Weather History for Plymouth, NH

Change the Weather History Date:

Friday, February 8, 2013

  Actual Average (KLCI) Record (KLCI)
Temperature  
Mean Temperature 17 °F -  
Max Temperature 21 °F 29 °F 46 °F (1990)
Min Temperature 13 °F 5 °F -13 °F (1993)
Degree Days  
Heating Degree Days 48    
Moisture  
Dew Point 11 °F    
Average Humidity 76    
Maximum Humidity 92    
Minimum Humidity 40    
Precipitation  
Precipitation 0.04 in - - ()
Sea Level Pressure  
Sea Level Pressure 30.22 in    
Wind  
Wind Speed 5 mph (ESE)    
Max Wind Speed 16 mph    
Max Gust Speed 24 mph    
Visibility 4 miles    
Events Snow    
Averages and records for this station are not official NWS values.
T = Trace of Precipitation, MM = Missing Value Source: NWS Daily Summary

Daily Weather History Graph

Daily Weather History Graph

Search for Another Location

Airport:

Trip Planner

Search our weather history database for the weather conditions in past years. The results will help you decide how hot, cold, wet, or windy it might be!

Date:

Astronomy

Feb. 08, 2013 Rise Set
Actual Time 6:55 AM EST 5:07 PM EST
Civil Twilight 6:25 AM EST 5:37 PM EST
Nautical Twilight 5:51 AM EST 6:11 PM EST
Astronomical Twilight 5:17 AM EST 6:45 PM EST
Moon 5:23 AM EST (2/8) 3:36 PM EST (2/8)
Length of Visible Light 11h 12m
Length of Day
10h 12m
Waning Crescent, 3% of the Moon is Illuminated
Feb 8
Waning Crescent
Feb 10
New
Feb 17
First Quarter
Feb 25
Full
Mar 4
Last Quarter

Hourly Weather History & Observations

Time (EST) Temp. Windchill Dew Point Humidity Pressure Visibility Wind Dir Wind Speed Gust Speed Precip Events Conditions
12:15 AM 18.3 °F 9.1 °F -2.4 °F 40% 30.47 in 10.0 mi East 6.9 mph - N/A   Unknown
12:35 AM 18.3 °F 11.5 °F -2.4 °F 40% 30.47 in 10.0 mi ESE 4.6 mph - N/A   Unknown
12:55 AM 18.3 °F 11.5 °F -2.6 °F 40% 30.46 in 10.0 mi East 4.6 mph - N/A   Unknown
1:15 AM 18.1 °F 10.0 °F -2.0 °F 41% 30.46 in 10.0 mi East 5.8 mph - N/A   Unknown
1:35 AM 18.0 °F 11.1 °F -2.9 °F 40% 30.46 in 10.0 mi ESE 4.6 mph - N/A   Unknown
1:55 AM 17.6 °F 12.3 °F -2.2 °F 42% 30.46 in 10.0 mi ESE 3.5 mph - N/A   Unknown
2:15 AM 17.6 °F 12.3 °F -2.4 °F 41% 30.45 in 10.0 mi SE 3.5 mph - N/A   Unknown
2:35 AM 17.6 °F 10.7 °F -2.4 °F 41% 30.44 in 10.0 mi ESE 4.6 mph - N/A   Unknown
2:55 AM 17.6 °F 12.3 °F -2.2 °F 42% 30.43 in 10.0 mi ESE 3.5 mph - N/A   Unknown
3:15 AM 17.6 °F 12.3 °F -1.3 °F 44% 30.42 in 10.0 mi SE 3.5 mph - N/A   Unknown
3:35 AM 17.4 °F - -0.2 °F 46% 30.41 in 10.0 mi Calm Calm - N/A   Unknown
3:55 AM 17.2 °F 11.9 °F 1.0 °F 49% 30.41 in 10.0 mi ESE 3.5 mph - N/A   Unknown
4:15 AM 16.5 °F 11.0 °F 3.7 °F 57% 30.40 in 7.0 mi ESE 3.5 mph - N/A Snow Light Snow
4:55 AM 15.4 °F 8.1 °F 7.7 °F 71% 30.39 in 3.0 mi SSE 4.6 mph - N/A Snow Light Snow
5:15 AM 14.9 °F 9.2 °F 8.4 °F 76% 30.39 in 4.0 mi SSE 3.5 mph - N/A Snow Light Snow
5:35 AM 14.9 °F 5.0 °F 9.5 °F 79% 30.39 in 2.0 mi SE 6.9 mph - N/A Snow Light Snow
5:55 AM 14.5 °F 8.8 °F 10.2 °F 83% 30.39 in 1.8 mi SE 3.5 mph - N/A Snow Light Snow
6:15 AM 14.0 °F 5.1 °F 10.8 °F 87% 30.38 in 1.0 mi SE 5.8 mph - N/A Snow Snow
6:35 AM 14.0 °F 6.5 °F 10.9 °F 88% 30.37 in 1.0 mi ESE 4.6 mph - N/A Snow Snow
6:55 AM 14.0 °F 8.2 °F 10.4 °F 86% 30.38 in 1.2 mi ESE 3.5 mph - N/A Snow Light Snow
7:15 AM 14.0 °F 8.2 °F 10.2 °F 85% 30.38 in 1.0 mi SE 3.5 mph - N/A Snow Light Snow
7:35 AM 13.8 °F - 10.4 °F 86% 30.38 in 0.5 mi Calm Calm - N/A Snow Snow
7:55 AM 13.6 °F 7.7 °F 10.4 °F 87% 30.38 in 0.5 mi SSE 3.5 mph - N/A Snow Snow
8:35 AM 13.8 °F 8.0 °F 10.4 °F 86% 30.37 in 0.8 mi SE 3.5 mph - N/A Snow Light Snow
9:15 AM 14.0 °F 6.5 °F 10.9 °F 88% 30.36 in 0.5 mi ESE 4.6 mph - N/A Snow Snow
9:35 AM 14.0 °F 8.2 °F 11.3 °F 89% 30.35 in 0.5 mi SE 3.5 mph - 0.01 in Snow Snow
9:55 AM 14.5 °F 7.1 °F 11.3 °F 87% 30.34 in 0.5 mi SE 4.6 mph - 0.01 in Snow Snow
10:15 AM 14.9 °F 7.5 °F 11.3 °F 86% 30.34 in 1.0 mi ESE 4.6 mph - N/A Snow Light Snow
10:35 AM 15.4 °F 8.1 °F 11.3 °F 84% 30.34 in 1.5 mi ESE 4.6 mph - N/A Snow Light Snow
10:55 AM 15.8 °F 8.6 °F 11.1 °F 82% 30.33 in 3.0 mi ESE 4.6 mph - N/A Snow Light Snow
11:15 AM 16.3 °F 9.2 °F 10.8 °F 79% 30.32 in 10.0 mi ESE 4.6 mph - N/A   Unknown
11:35 AM 16.5 °F 8.1 °F 10.9 °F 79% 30.31 in 5.0 mi East 5.8 mph - N/A Snow Light Snow
11:55 AM 16.7 °F 8.3 °F 11.5 °F 80% 30.29 in 3.0 mi ESE 5.8 mph - N/A Snow Light Snow
12:15 PM 17.1 °F 7.6 °F 12.0 °F 81% 30.28 in 4.0 mi ESE 6.9 mph - N/A Snow Light Snow
12:35 PM 17.6 °F 9.3 °F 12.2 °F 79% 30.26 in 4.0 mi ESE 5.8 mph - N/A Snow Light Snow
12:55 PM 18.1 °F 11.3 °F 12.6 °F 79% 30.25 in 7.0 mi ESE 4.6 mph - N/A Snow Light Snow
1:15 PM 18.3 °F 11.5 °F 12.9 °F 79% 30.24 in 10.0 mi ESE 4.6 mph - N/A Snow Light Snow
1:35 PM 18.9 °F 12.1 °F 13.6 °F 80% 30.22 in 2.5 mi ESE 4.6 mph - N/A Snow Light Snow
1:55 PM 19.0 °F 11.1 °F 14.5 °F 83% 30.21 in 1.5 mi ESE 5.8 mph - N/A Snow Light Snow
2:15 PM 19.8 °F 9.9 °F 14.9 °F 81% 30.19 in 2.0 mi ESE 8.1 mph - N/A Snow Light Snow
2:35 PM 20.7 °F 10.2 °F 15.1 °F 79% 30.17 in 1.8 mi ESE 9.2 mph - N/A Snow Light Snow
2:55 PM 20.8 °F 9.7 °F 15.4 °F 80% 30.16 in 3.0 mi ESE 10.4 mph - N/A Snow Light Snow
3:15 PM 21.7 °F 12.3 °F 15.6 °F 77% 30.15 in 4.0 mi ESE 8.1 mph - N/A Snow Light Snow
3:35 PM 21.9 °F 12.5 °F 16.3 °F 79% 30.14 in 2.0 mi ESE 8.1 mph - N/A Snow Light Snow
3:55 PM 21.2 °F 10.9 °F 16.3 °F 82% 30.14 in 1.2 mi ESE 9.2 mph 18.4 mph N/A Snow Light Snow
4:15 PM 20.8 °F 8.4 °F 16.5 °F 83% 30.13 in 1.0 mi East 12.7 mph 17.3 mph N/A Snow Light Snow
4:35 PM 20.7 °F 9.5 °F 16.3 °F 83% 30.11 in 1.0 mi East 10.4 mph 18.4 mph N/A Snow Light Snow
4:55 PM 20.3 °F 10.6 °F 16.3 °F 85% 30.10 in 1.0 mi ESE 8.1 mph 16.1 mph N/A Snow Light Snow
5:15 PM 20.3 °F 9.8 °F 16.7 °F 86% 30.09 in 1.0 mi ESE 9.2 mph - N/A Snow Light Snow
5:35 PM 20.5 °F 8.6 °F 16.9 °F 86% 30.08 in 1.5 mi East 11.5 mph - N/A Snow Light Snow
5:55 PM 20.5 °F 11.7 °F 16.5 °F 85% 30.08 in 1.8 mi East 6.9 mph - N/A Snow Light Snow
6:15 PM 20.3 °F 12.5 °F 16.7 °F 86% 30.07 in 1.8 mi SE 5.8 mph - N/A Snow Light Snow
6:35 PM 20.7 °F 11.9 °F 16.7 °F 85% 30.06 in 2.5 mi East 6.9 mph - N/A Snow Light Snow
6:55 PM 21.2 °F 10.1 °F 16.5 °F 82% 30.04 in 2.5 mi ENE 10.4 mph - N/A Snow Light Snow
7:15 PM 21.2 °F 7.3 °F 16.5 °F 82% 30.03 in 1.5 mi East 16.1 mph 24.2 mph N/A Snow Light Snow
7:35 PM 21.0 °F 11.4 °F 16.5 °F 83% 30.02 in 1.8 mi East 8.1 mph - N/A Snow Light Snow
7:55 PM 20.3 °F 15.4 °F 17.2 °F 88% 30.01 in 1.8 mi ENE 3.5 mph - N/A Snow Light Snow
8:15 PM 20.1 °F 15.2 °F 16.7 °F 87% 29.99 in 2.0 mi ESE 3.5 mph - N/A Snow Light Snow
8:35 PM 19.9 °F 11.1 °F 16.2 °F 85% 29.98 in 2.0 mi East 6.9 mph - N/A Snow Light Snow
8:55 PM 19.9 °F 12.1 °F 16.2 °F 85% 29.98 in 2.0 mi East 5.8 mph - N/A Snow Light Snow
9:15 PM 19.8 °F 11.9 °F 15.8 °F 85% 29.96 in 2.0 mi East 5.8 mph - N/A Snow Light Snow
9:55 PM 19.2 °F 14.1 °F 16.7 °F 90% 29.93 in 1.2 mi SE 3.5 mph - N/A Snow Light Snow
10:15 PM 19.2 °F - 17.1 °F 91% 29.91 in 1.0 mi Calm Calm - 0.01 in Snow Snow
10:35 PM 19.2 °F - 17.2 °F 92% 29.89 in 1.2 mi Calm Calm - 0.02 in Snow Light Snow
10:55 PM 19.9 °F 14.9 °F 16.7 °F 87% 29.88 in 1.5 mi East 3.5 mph - 0.02 in Snow Light Snow
11:15 PM 20.1 °F 15.2 °F 16.5 °F 86% 29.86 in 1.5 mi East 3.5 mph - N/A Snow Light Snow
11:35 PM 19.9 °F 13.4 °F 17.1 °F 89% 29.85 in 1.2 mi ESE 4.6 mph - 0.01 in Snow Snow
11:55 PM 20.1 °F 13.6 °F 17.2 °F 89% 29.83 in 1.5 mi East 4.6 mph - 0.01 in Snow Light Snow